Time;durP1;ratioP1;P1;durP2;ratioP2;P2;SDS_P1;SDS_P2;PMS_P1;PMS_P2;Temp;Humidity;BMP_temperature;BMP_pressure;BME280_temperature;BME280_humidity;BME280_pressure;Samples;Min_cycle;Max_cycle;Signal;HPM_P1;HPM_P2
2023/08/02 00:01:48;;;;;;;2.13;1.15;;;;;;;;;;5091810;28;20206;-62
2023/08/02 00:04:15;;;;;;;3.08;1.80;;;;;;;;;;5092189;28;20206;-62
2023/08/02 00:06:42;;;;;;;1.60;1.50;;;;;;;;;;5091684;28;20207;-61
2023/08/02 00:09:09;;;;;;;4.93;1.70;;;;;;;;;;5091916;28;20209;-61
2023/08/02 00:11:36;;;;;;;1.35;1.35;;;;;;;;;;5091093;28;20230;-61
2023/08/02 00:14:04;;;;;;;1.40;1.30;;;;;;;;;;5092380;28;20210;-61
2023/08/02 00:16:33;;;;;;;4.53;1.42;;;;;;;;;;5088674;28;21598;-61
2023/08/02 00:19:00;;;;;;;1.40;1.30;;;;;;;;;;5077340;28;20248;-62
2023/08/02 00:21:27;;;;;;;1.90;1.20;;;;;;;;;;5091797;28;20224;-61
2023/08/02 00:23:54;;;;;;;1.98;1.20;;;;;;;;;;5083429;28;20569;-61
2023/08/02 00:26:22;;;;;;;3.20;1.60;;;;;;;;;;5092037;28;20667;-62
2023/08/02 00:28:49;;;;;;;1.55;1.33;;;;;;;;;;5091245;28;20218;-61
2023/08/02 00:31:16;;;;;;;1.60;1.50;;;;;;;;;;5091774;28;20251;-61
2023/08/02 00:33:44;;;;;;;2.05;1.48;;;;;;;;;;5089571;28;20683;-62
2023/08/02 00:36:11;;;;;;;1.85;1.40;;;;;;;;;;5091964;28;20202;-62
2023/08/02 00:38:38;;;;;;;2.05;1.40;;;;;;;;;;5085247;28;20222;-61
2023/08/02 00:41:06;;;;;;;2.15;1.67;;;;;;;;;;5091967;28;20209;-61
2023/08/02 00:43:39;;;;;;;3.28;1.50;;;;;;;;;;5089594;28;20235;-62
2023/08/02 00:46:06;;;;;;;1.65;1.52;;;;;;;;;;5091887;28;20238;-61
2023/08/02 00:48:47;;;;;;;1.95;1.20;;;;;;;;;;5090585;28;20210;-61
2023/08/02 00:51:16;;;;;;;1.95;1.23;;;;;;;;;;5091394;28;20226;-61
2023/08/02 00:53:43;;;;;;;1.75;1.42;;;;;;;;;;5089800;28;20591;-61
2023/08/02 00:56:11;;;;;;;1.48;1.15;;;;;;;;;;5091493;28;20635;-62
2023/08/02 00:58:38;;;;;;;6.55;1.52;;;;;;;;;;5089874;28;20210;-61
2023/08/02 01:01:07;;;;;;;3.13;1.50;;;;;;;;;;5086134;28;20210;-62
2023/08/02 01:03:35;;;;;;;1.98;1.30;;;;;;;;;;5088770;28;20199;-61
2023/08/02 01:06:07;;;;;;;3.85;1.25;;;;;;;;;;5089136;28;20202;-61
2023/08/02 01:08:37;;;;;;;1.60;1.42;;;;;;;;;;5090431;28;20210;-61
2023/08/02 01:11:06;;;;;;;1.33;1.23;;;;;;;;;;5090692;28;20268;-61
2023/08/02 01:13:34;;;;;;;1.10;1.10;;;;;;;;;;5090143;28;20202;-62
2023/08/02 01:16:02;;;;;;;4.38;1.15;;;;;;;;;;5091074;28;20206;-62
2023/08/02 01:18:29;;;;;;;2.92;1.20;;;;;;;;;;5089786;28;20298;-62
2023/08/02 01:20:57;;;;;;;2.25;1.42;;;;;;;;;;5090730;28;20225;-61
2023/08/02 01:23:24;;;;;;;2.88;1.10;;;;;;;;;;5090298;28;20587;-62
2023/08/02 01:25:52;;;;;;;2.70;1.05;;;;;;;;;;5091053;28;20214;-61
2023/08/02 01:28:23;;;;;;;1.42;1.33;;;;;;;;;;5090860;28;20213;-61
2023/08/02 01:30:51;;;;;;;2.63;1.63;;;;;;;;;;5078061;28;20227;-61
2023/08/02 01:33:18;;;;;;;4.88;1.20;;;;;;;;;;5088734;28;20202;-61
2023/08/02 01:35:45;;;;;;;1.30;1.20;;;;;;;;;;5089908;28;20214;-61
2023/08/02 01:38:13;;;;;;;3.03;1.30;;;;;;;;;;5090769;28;20210;-61
2023/08/02 01:40:40;;;;;;;1.23;1.13;;;;;;;;;;5089639;28;20217;-61
2023/08/02 01:43:07;;;;;;;1.90;1.20;;;;;;;;;;5089643;28;20218;-61
2023/08/02 01:45:35;;;;;;;1.98;1.20;;;;;;;;;;5086908;28;20210;-62
2023/08/02 01:48:02;;;;;;;2.72;1.50;;;;;;;;;;5082943;28;20202;-62
2023/08/02 01:50:29;;;;;;;1.10;0.93;;;;;;;;;;5090012;28;20242;-61
2023/08/02 01:52:56;;;;;;;1.27;1.27;;;;;;;;;;5089951;28;20203;-61
2023/08/02 01:55:24;;;;;;;1.55;1.27;;;;;;;;;;5090261;28;20210;-61
2023/08/02 01:57:51;;;;;;;1.95;1.30;;;;;;;;;;5081190;28;20214;-61
2023/08/02 02:00:18;;;;;;;1.42;0.70;;;;;;;;;;5090408;28;20209;-61
2023/08/02 02:02:46;;;;;;;1.20;1.15;;;;;;;;;;5089121;28;20209;-61
2023/08/02 02:05:13;;;;;;;1.30;1.20;;;;;;;;;;5090215;28;20210;-61
2023/08/02 02:07:40;;;;;;;1.33;0.95;;;;;;;;;;5089542;28;20218;-62
2023/08/02 02:10:07;;;;;;;2.85;1.20;;;;;;;;;;5090344;28;20220;-62
2023/08/02 02:12:35;;;;;;;3.65;1.38;;;;;;;;;;5088662;28;20237;-62
2023/08/02 02:15:02;;;;;;;2.67;1.10;;;;;;;;;;5089146;28;20202;-62
2023/08/02 02:17:29;;;;;;;1.10;1.10;;;;;;;;;;5089507;28;20203;-62
2023/08/02 02:19:56;;;;;;;1.70;1.40;;;;;;;;;;5089666;28;20203;-62
2023/08/02 02:22:23;;;;;;;3.45;1.20;;;;;;;;;;5088596;28;20205;-63
2023/08/02 02:24:51;;;;;;;1.52;1.17;;;;;;;;;;5089796;28;20579;-62
2023/08/02 02:27:18;;;;;;;2.20;1.05;;;;;;;;;;5088944;28;20209;-62
2023/08/02 02:29:46;;;;;;;1.85;1.40;;;;;;;;;;5089520;28;20217;-59
2023/08/02 02:32:13;;;;;;;2.33;1.17;;;;;;;;;;5089175;28;20238;-61
2023/08/02 02:34:40;;;;;;;1.25;1.15;;;;;;;;;;5088102;28;20583;-60
2023/08/02 02:37:07;;;;;;;1.25;1.20;;;;;;;;;;5089245;28;20209;-59
2023/08/02 02:39:34;;;;;;;2.97;1.42;;;;;;;;;;5088977;28;20202;-60
2023/08/02 02:42:01;;;;;;;2.03;1.52;;;;;;;;;;5088789;28;20198;-60
2023/08/02 02:44:41;;;;;;;2.00;1.38;;;;;;;;;;5089475;28;20229;-59
2023/08/02 02:47:09;;;;;;;1.42;1.35;;;;;;;;;;5089623;28;20237;-59
2023/08/02 02:49:36;;;;;;;1.83;1.30;;;;;;;;;;5089453;28;20216;-59
2023/08/02 02:52:03;;;;;;;1.65;1.30;;;;;;;;;;5089098;28;20222;-60
2023/08/02 02:54:30;;;;;;;1.30;1.30;;;;;;;;;;5084507;28;20792;-59
2023/08/02 02:56:57;;;;;;;4.43;1.40;;;;;;;;;;5075039;28;20206;-59
2023/08/02 02:59:25;;;;;;;1.20;1.20;;;;;;;;;;5089312;28;20217;-60
2023/08/02 03:01:52;;;;;;;2.33;1.60;;;;;;;;;;5088471;28;20203;-59
2023/08/02 03:04:20;;;;;;;1.02;1.00;;;;;;;;;;5089228;28;20207;-61
2023/08/02 03:06:47;;;;;;;3.20;1.20;;;;;;;;;;5084622;28;20478;-59
2023/08/02 03:09:14;;;;;;;3.10;1.33;;;;;;;;;;5089126;28;20198;-59
2023/08/02 03:11:41;;;;;;;2.25;1.42;;;;;;;;;;5088607;28;20442;-60
2023/08/02 03:14:08;;;;;;;2.13;1.00;;;;;;;;;;5088393;28;20210;-61
2023/08/02 03:16:35;;;;;;;1.23;1.23;;;;;;;;;;5089220;28;20672;-60
2023/08/02 03:19:02;;;;;;;1.88;1.50;;;;;;;;;;5089397;28;20206;-60
2023/08/02 03:21:31;;;;;;;1.10;1.10;;;;;;;;;;5088754;28;20190;-60
2023/08/02 03:23:58;;;;;;;2.55;1.13;;;;;;;;;;5089071;28;20213;-60
2023/08/02 03:26:25;;;;;;;2.25;1.20;;;;;;;;;;5088791;28;20203;-62
2023/08/02 03:28:52;;;;;;;3.63;1.20;;;;;;;;;;5088973;28;20695;-61
2023/08/02 03:31:19;;;;;;;1.98;0.90;;;;;;;;;;5088661;28;20230;-62
2023/08/02 03:33:46;;;;;;;1.75;1.35;;;;;;;;;;5088454;28;20676;-61
2023/08/02 03:36:13;;;;;;;2.88;1.27;;;;;;;;;;5089042;28;20221;-62
2023/08/02 03:38:42;;;;;;;1.10;1.08;;;;;;;;;;5087787;28;20202;-62
2023/08/02 03:41:09;;;;;;;1.48;1.38;;;;;;;;;;5088503;28;20244;-62
2023/08/02 03:43:36;;;;;;;2.65;1.25;;;;;;;;;;5087925;28;20261;-62
2023/08/02 03:46:03;;;;;;;1.27;1.23;;;;;;;;;;5088952;28;20293;-61
2023/08/02 03:48:31;;;;;;;1.25;1.02;;;;;;;;;;5087625;28;20687;-61
2023/08/02 03:50:59;;;;;;;1.70;1.42;;;;;;;;;;5088868;28;20211;-61
2023/08/02 03:53:27;;;;;;;2.38;1.65;;;;;;;;;;5088242;28;20209;-62
2023/08/02 03:55:55;;;;;;;1.38;1.05;;;;;;;;;;5088821;28;20264;-61
2023/08/02 03:58:22;;;;;;;1.00;1.00;;;;;;;;;;5088532;28;20202;-62
2023/08/02 04:00:50;;;;;;;3.40;1.42;;;;;;;;;;5085918;28;20549;-61
2023/08/02 04:03:17;;;;;;;4.93;2.47;;;;;;;;;;5068355;28;20216;-61
2023/08/02 04:05:45;;;;;;;1.20;0.98;;;;;;;;;;5070523;28;20207;-62
2023/08/02 04:08:12;;;;;;;3.67;1.50;;;;;;;;;;5076285;28;20811;-61
2023/08/02 04:10:39;;;;;;;1.33;1.30;;;;;;;;;;5083944;28;20267;-62
2023/08/02 04:13:07;;;;;;;1.10;1.10;;;;;;;;;;5091284;28;20231;-61
2023/08/02 04:15:34;;;;;;;1.60;1.50;;;;;;;;;;5091651;28;20206;-61
2023/08/02 04:18:02;;;;;;;3.47;1.35;;;;;;;;;;5092269;28;20214;-61
2023/08/02 04:20:29;;;;;;;3.05;1.20;;;;;;;;;;5091296;28;20669;-61
2023/08/02 04:22:56;;;;;;;1.58;1.20;;;;;;;;;;5091323;28;20203;-61
2023/08/02 04:25:23;;;;;;;3.05;1.50;;;;;;;;;;5092018;28;20210;-61
2023/08/02 04:27:50;;;;;;;1.83;1.30;;;;;;;;;;5091962;28;20625;-61
2023/08/02 04:30:18;;;;;;;1.95;1.30;;;;;;;;;;5091224;28;20203;-61
2023/08/02 04:32:45;;;;;;;1.98;1.40;;;;;;;;;;5091329;28;20233;-61
2023/08/02 04:35:13;;;;;;;1.17;1.17;;;;;;;;;;5091820;28;20716;-61
2023/08/02 04:37:40;;;;;;;1.50;1.40;;;;;;;;;;5091153;28;20206;-61
2023/08/02 04:40:07;;;;;;;2.55;1.60;;;;;;;;;;5090645;28;20210;-61
2023/08/02 04:42:34;;;;;;;5.82;1.73;;;;;;;;;;5091470;28;20194;-62
2023/08/02 04:45:01;;;;;;;4.60;1.20;;;;;;;;;;5091168;28;20217;-61
2023/08/02 04:47:30;;;;;;;1.50;1.40;;;;;;;;;;5091146;28;20208;-62
2023/08/02 04:49:58;;;;;;;2.45;1.05;;;;;;;;;;5091534;28;20210;-61
2023/08/02 04:52:25;;;;;;;1.38;1.38;;;;;;;;;;5087120;28;20223;-61
2023/08/02 04:54:52;;;;;;;3.00;1.48;;;;;;;;;;5091331;28;20221;-61
2023/08/02 04:57:19;;;;;;;1.50;1.40;;;;;;;;;;5090434;28;20290;-62
2023/08/02 04:59:46;;;;;;;1.60;1.50;;;;;;;;;;5090941;28;20195;-59
2023/08/02 05:02:13;;;;;;;4.85;1.80;;;;;;;;;;5089891;28;20198;-61
2023/08/02 05:04:42;;;;;;;1.52;1.42;;;;;;;;;;5091448;28;20213;-59
2023/08/02 05:07:09;;;;;;;3.28;1.60;;;;;;;;;;5091426;28;20217;-60
2023/08/02 05:09:36;;;;;;;3.08;1.65;;;;;;;;;;5082733;28;20203;-60
2023/08/02 05:12:03;;;;;;;3.33;1.60;;;;;;;;;;5088063;28;20238;-60
2023/08/02 05:14:30;;;;;;;1.83;1.73;;;;;;;;;;5088694;28;20206;-60
2023/08/02 05:16:57;;;;;;;1.60;1.50;;;;;;;;;;5081335;28;20230;-60
2023/08/02 05:19:24;;;;;;;1.92;1.80;;;;;;;;;;5086856;28;20203;-61
2023/08/02 05:21:52;;;;;;;2.70;1.52;;;;;;;;;;5090703;28;20218;-61
2023/08/02 05:24:19;;;;;;;3.33;1.63;;;;;;;;;;5090334;28;20209;-61
2023/08/02 05:26:46;;;;;;;1.92;1.83;;;;;;;;;;5087212;28;20217;-62
2023/08/02 05:29:13;;;;;;;1.30;1.30;;;;;;;;;;5085631;28;20665;-61
2023/08/02 05:31:41;;;;;;;3.40;1.60;;;;;;;;;;5085157;28;20241;-61
2023/08/02 05:34:08;;;;;;;1.65;1.55;;;;;;;;;;5081861;28;20206;-61
2023/08/02 05:36:35;;;;;;;4.97;1.80;;;;;;;;;;5079419;28;20308;-61
2023/08/02 05:39:04;;;;;;;1.90;1.80;;;;;;;;;;5088699;28;20214;-62
2023/08/02 05:41:31;;;;;;;1.50;1.38;;;;;;;;;;5087056;28;20198;-61
2023/08/02 05:43:58;;;;;;;2.15;1.70;;;;;;;;;;5088106;28;20232;-61
2023/08/02 05:46:25;;;;;;;1.35;1.27;;;;;;;;;;5089163;28;20208;-61
2023/08/02 05:48:52;;;;;;;2.28;1.60;;;;;;;;;;5084056;28;20210;-61
2023/08/02 05:51:28;;;;;;;2.80;1.80;;;;;;;;;;5082831;28;20225;-61
2023/08/02 05:53:55;;;;;;;2.30;1.38;;;;;;;;;;5090426;28;20232;-61
2023/08/02 05:56:24;;;;;;;2.15;1.40;;;;;;;;;;5080983;28;20203;-61
2023/08/02 05:58:51;;;;;;;4.60;1.50;;;;;;;;;;5085422;28;20564;-62
2023/08/02 06:01:18;;;;;;;4.82;4.53;;;;;;;;;;5086311;28;20215;-61
2023/08/02 06:03:45;;;;;;;4.10;3.70;;;;;;;;;;5078131;28;20217;-61
2023/08/02 06:06:12;;;;;;;2.97;2.70;;;;;;;;;;5083410;28;20210;-60
2023/08/02 06:08:40;;;;;;;2.35;2.05;;;;;;;;;;5086806;28;20206;-63
2023/08/02 06:11:07;;;;;;;4.63;2.35;;;;;;;;;;5079683;28;20205;-62
2023/08/02 06:13:36;;;;;;;2.58;2.08;;;;;;;;;;5089190;28;20241;-61
2023/08/02 06:16:03;;;;;;;1.65;1.50;;;;;;;;;;5081486;28;20214;-60
2023/08/02 06:18:30;;;;;;;3.67;1.63;;;;;;;;;;5088746;28;20198;-61
2023/08/02 06:20:57;;;;;;;2.20;1.75;;;;;;;;;;5074991;28;20213;-62
2023/08/02 06:23:24;;;;;;;1.50;1.50;;;;;;;;;;5088863;28;20195;-61
2023/08/02 06:25:51;;;;;;;2.42;1.60;;;;;;;;;;5087890;28;20206;-61
2023/08/02 06:28:18;;;;;;;1.80;1.50;;;;;;;;;;5089393;28;20308;-62
2023/08/02 06:30:46;;;;;;;1.73;1.60;;;;;;;;;;5087956;28;20206;-61
2023/08/02 06:33:13;;;;;;;1.70;1.70;;;;;;;;;;5087362;28;20225;-61
2023/08/02 06:35:40;;;;;;;1.83;1.60;;;;;;;;;;5086052;28;20214;-62
2023/08/02 06:38:07;;;;;;;3.08;1.92;;;;;;;;;;5088956;28;20206;-61
2023/08/02 06:40:34;;;;;;;2.45;1.90;;;;;;;;;;5084752;28;20213;-61
2023/08/02 06:43:01;;;;;;;4.13;2.10;;;;;;;;;;5088873;28;20744;-61
2023/08/02 06:45:28;;;;;;;5.25;2.47;;;;;;;;;;5086269;28;20209;-60
2023/08/02 06:47:57;;;;;;;1.85;1.75;;;;;;;;;;5088402;28;20198;-60
2023/08/02 06:50:24;;;;;;;1.92;1.80;;;;;;;;;;5083321;28;20688;-61
2023/08/02 06:52:51;;;;;;;2.72;2.05;;;;;;;;;;5088793;28;20241;-62
2023/08/02 06:55:18;;;;;;;2.13;2.03;;;;;;;;;;5088602;28;20221;-61
2023/08/02 06:57:45;;;;;;;2.35;1.90;;;;;;;;;;5087884;28;20211;-61
2023/08/02 07:00:12;;;;;;;1.55;1.45;;;;;;;;;;5088634;28;20209;-61
2023/08/02 07:02:40;;;;;;;2.45;2.10;;;;;;;;;;5077624;28;20207;-61
2023/08/02 07:05:08;;;;;;;5.85;1.90;;;;;;;;;;5088492;28;20225;-60
2023/08/02 07:07:35;;;;;;;2.55;1.67;;;;;;;;;;5083405;28;20696;-60
2023/08/02 07:10:02;;;;;;;4.47;1.80;;;;;;;;;;5087155;28;20213;-60
2023/08/02 07:12:29;;;;;;;2.15;1.70;;;;;;;;;;5087264;28;20233;-61
2023/08/02 07:14:56;;;;;;;1.70;1.60;;;;;;;;;;5088628;28;20207;-61
2023/08/02 07:17:23;;;;;;;3.63;1.70;;;;;;;;;;5087273;28;20214;-61
2023/08/02 07:19:50;;;;;;;1.88;1.60;;;;;;;;;;5088275;28;20225;-60
2023/08/02 07:22:19;;;;;;;4.63;1.85;;;;;;;;;;5081103;28;20673;-61
2023/08/02 07:24:46;;;;;;;1.88;1.85;;;;;;;;;;5080037;28;20686;-61
2023/08/02 07:27:13;;;;;;;1.83;1.73;;;;;;;;;;5086971;28;20579;-61
2023/08/02 07:29:40;;;;;;;2.15;1.60;;;;;;;;;;5088269;28;20210;-61
2023/08/02 07:32:07;;;;;;;1.67;1.67;;;;;;;;;;5084337;28;20246;-61
2023/08/02 07:34:34;;;;;;;1.58;1.48;;;;;;;;;;5085113;28;20579;-60
2023/08/02 07:37:01;;;;;;;2.15;1.70;;;;;;;;;;5086724;28;20198;-60
2023/08/02 07:39:30;;;;;;;2.05;1.85;;;;;;;;;;5080629;28;20214;-61
2023/08/02 07:41:57;;;;;;;1.50;1.40;;;;;;;;;;5087967;28;20211;-60
2023/08/02 07:44:24;;;;;;;1.60;1.50;;;;;;;;;;5090721;28;20719;-60
2023/08/02 07:46:51;;;;;;;1.70;1.60;;;;;;;;;;5091471;28;20202;-61
2023/08/02 07:49:18;;;;;;;2.67;1.48;;;;;;;;;;5090848;28;20210;-61
2023/08/02 07:51:45;;;;;;;1.45;1.40;;;;;;;;;;5090644;28;20206;-61
2023/08/02 07:54:12;;;;;;;1.90;1.80;;;;;;;;;;5090302;28;20255;-61
2023/08/02 07:56:40;;;;;;;1.67;1.67;;;;;;;;;;5091884;28;20206;-60
2023/08/02 07:59:07;;;;;;;1.85;1.75;;;;;;;;;;5091062;28;20211;-61
2023/08/02 08:01:35;;;;;;;1.85;1.60;;;;;;;;;;5091567;28;20569;-60
2023/08/02 08:04:02;;;;;;;3.47;1.48;;;;;;;;;;5091710;28;20208;-60
2023/08/02 08:06:29;;;;;;;3.00;1.65;;;;;;;;;;5090961;28;20232;-61
2023/08/02 08:08:56;;;;;;;1.70;1.70;;;;;;;;;;5091430;28;20213;-60
2023/08/02 08:11:23;;;;;;;1.95;1.85;;;;;;;;;;5082154;28;20576;-61
2023/08/02 08:13:52;;;;;;;1.75;1.67;;;;;;;;;;5081107;28;20222;-60
2023/08/02 08:16:19;;;;;;;1.40;1.40;;;;;;;;;;5089027;28;20445;-61
2023/08/02 08:18:46;;;;;;;1.73;1.70;;;;;;;;;;5089159;28;20622;-61
2023/08/02 08:21:13;;;;;;;1.95;1.60;;;;;;;;;;5080223;28;20725;-60
2023/08/02 08:23:40;;;;;;;1.70;1.70;;;;;;;;;;5087729;28;20199;-60
2023/08/02 08:26:11;;;;;;;1.88;1.70;;;;;;;;;;5089213;28;20206;-60
2023/08/02 08:28:38;;;;;;;1.60;1.60;;;;;;;;;;5091982;28;20583;-60
2023/08/02 08:31:06;;;;;;;2.35;1.70;;;;;;;;;;5091694;28;20250;-59
2023/08/02 08:33:34;;;;;;;1.55;1.52;;;;;;;;;;5090889;28;20233;-63
2023/08/02 08:36:01;;;;;;;2.72;1.95;;;;;;;;;;5089617;28;20669;-62
2023/08/02 08:38:28;;;;;;;2.22;1.75;;;;;;;;;;5087428;28;20753;-70
2023/08/02 08:40:55;;;;;;;3.33;1.63;;;;;;;;;;5087530;28;20194;-62
2023/08/02 08:43:26;;;;;;;2.30;2.20;;;;;;;;;;5090579;28;20375;-61
2023/08/02 08:45:53;;;;;;;4.05;1.65;;;;;;;;;;5091681;28;20743;-61
2023/08/02 08:48:23;;;;;;;2.75;1.58;;;;;;;;;;5091226;28;20206;-62
2023/08/02 08:50:51;;;;;;;1.90;1.80;;;;;;;;;;5091635;28;20224;-61
2023/08/02 08:53:24;;;;;;;1.92;1.83;;;;;;;;;;5091507;28;20708;-61
2023/08/02 08:55:51;;;;;;;1.58;1.58;;;;;;;;;;5089681;28;20229;-61
2023/08/02 08:58:18;;;;;;;1.75;1.65;;;;;;;;;;5089669;28;20210;-62
2023/08/02 09:00:46;;;;;;;3.53;1.60;;;;;;;;;;5089097;28;20221;-62
2023/08/02 09:03:13;;;;;;;1.60;1.52;;;;;;;;;;5088207;28;20225;-61
2023/08/02 09:05:42;;;;;;;4.55;1.50;;;;;;;;;;5090107;28;20206;-62
2023/08/02 09:08:09;;;;;;;1.83;1.73;;;;;;;;;;5090716;28;20214;-61
2023/08/02 09:10:37;;;;;;;1.52;1.52;;;;;;;;;;5089983;28;20669;-61
2023/08/02 09:13:04;;;;;;;1.77;1.48;;;;;;;;;;5078570;28;20226;-61
2023/08/02 09:15:31;;;;;;;1.65;1.58;;;;;;;;;;5085138;28;20217;-61
2023/08/02 09:17:58;;;;;;;1.67;1.60;;;;;;;;;;5083951;28;20210;-61
2023/08/02 09:20:26;;;;;;;1.15;1.15;;;;;;;;;;5088695;28;20215;-63
2023/08/02 09:22:54;;;;;;;1.27;1.27;;;;;;;;;;5089231;28;20233;-61
2023/08/02 09:25:22;;;;;;;1.30;1.30;;;;;;;;;;5080845;28;20203;-61
2023/08/02 09:27:50;;;;;;;1.63;1.63;;;;;;;;;;5082542;28;20207;-61
2023/08/02 09:30:24;;;;;;;2.05;1.40;;;;;;;;;;5082871;28;20202;-61
2023/08/02 09:32:59;;;;;;;1.15;1.15;;;;;;;;;;5082175;28;20764;-61
2023/08/02 09:35:26;;;;;;;1.75;1.50;;;;;;;;;;5088660;28;20226;-62
2023/08/02 09:37:55;;;;;;;1.67;1.58;;;;;;;;;;5080029;28;20203;-61
2023/08/02 09:40:34;;;;;;;1.80;1.65;;;;;;;;;;5073717;28;20206;-61
2023/08/02 09:43:02;;;;;;;2.17;2.00;;;;;;;;;;5089030;28;20248;-60
2023/08/02 09:45:32;;;;;;;1.60;1.50;;;;;;;;;;5087048;28;20679;-61
2023/08/02 09:47:59;;;;;;;1.58;1.48;;;;;;;;;;5079547;28;20222;-61
2023/08/02 09:50:27;;;;;;;1.42;1.42;;;;;;;;;;5070938;28;20222;-61
2023/08/02 09:52:55;;;;;;;1.33;1.33;;;;;;;;;;5079857;28;20707;-61
2023/08/02 09:55:26;;;;;;;2.30;1.55;;;;;;;;;;5069119;28;20214;-63
2023/08/02 09:57:54;;;;;;;1.35;1.35;;;;;;;;;;5076195;28;20211;-64
2023/08/02 10:00:21;;;;;;;1.67;1.67;;;;;;;;;;5068755;28;20249;-63
2023/08/02 10:02:49;;;;;;;1.23;1.20;;;;;;;;;;5075426;28;20294;-63
2023/08/02 10:05:17;;;;;;;1.63;1.52;;;;;;;;;;5069127;28;20203;-61
2023/08/02 10:07:46;;;;;;;1.27;1.27;;;;;;;;;;5077536;28;20213;-61
2023/08/02 10:10:22;;;;;;;1.50;1.50;;;;;;;;;;5082872;28;20205;-63
2023/08/02 10:12:50;;;;;;;1.38;1.38;;;;;;;;;;5084626;28;20675;-61
2023/08/02 10:15:19;;;;;;;1.40;1.40;;;;;;;;;;5086710;28;20257;-63
2023/08/02 10:17:48;;;;;;;1.83;1.50;;;;;;;;;;5080001;28;20214;-63
2023/08/02 10:20:18;;;;;;;1.40;1.40;;;;;;;;;;5087773;28;20675;-63
2023/08/02 10:22:49;;;;;;;1.60;1.60;;;;;;;;;;5082621;28;20688;-63
2023/08/02 10:25:18;;;;;;;1.90;1.48;;;;;;;;;;5068867;28;20234;-61
2023/08/02 10:27:46;;;;;;;1.27;1.27;;;;;;;;;;5077927;28;20207;-61
2023/08/02 10:30:13;;;;;;;1.45;1.45;;;;;;;;;;5083066;28;20202;-61
2023/08/02 10:32:40;;;;;;;1.42;1.33;;;;;;;;;;5082357;28;20243;-61
2023/08/02 10:35:09;;;;;;;1.40;1.40;;;;;;;;;;5068590;28;20233;-61
2023/08/02 10:37:52;;;;;;;1.70;1.60;;;;;;;;;;5074716;28;20575;-61
2023/08/02 10:40:22;;;;;;;1.23;1.23;;;;;;;;;;5076059;28;20226;-62
2023/08/02 10:43:05;;;;;;;1.40;1.40;;;;;;;;;;5081039;28;20602;-62
2023/08/02 10:45:33;;;;;;;1.48;1.35;;;;;;;;;;5070479;28;20254;-62
2023/08/02 10:48:18;;;;;;;1.63;1.52;;;;;;;;;;5080069;28;20407;-60
2023/08/02 10:50:48;;;;;;;1.88;1.42;;;;;;;;;;5085207;28;20703;-61
2023/08/02 10:53:15;;;;;;;2.05;1.48;;;;;;;;;;5078174;28;20673;-61
2023/08/02 10:56:01;;;;;;;1.80;1.70;;;;;;;;;;5068899;28;20311;-61
2023/08/02 10:58:45;;;;;;;1.00;1.00;;;;;;;;;;5078242;28;20689;-66
2023/08/02 11:01:12;;;;;;;2.15;1.17;;;;;;;;;;5085997;28;20319;-64
2023/08/02 11:03:40;;;;;;;1.15;1.15;;;;;;;;;;5071081;28;20297;-63
2023/08/02 11:06:07;;;;;;;1.45;1.35;;;;;;;;;;5068585;28;20207;-63
2023/08/02 11:08:48;;;;;;;0.90;0.90;;;;;;;;;;5068440;28;20207;-62
2023/08/02 11:11:15;;;;;;;1.20;1.20;;;;;;;;;;5079392;28;20346;-62
2023/08/02 11:13:43;;;;;;;1.10;1.10;;;;;;;;;;5087725;28;20231;-59
2023/08/02 11:16:11;;;;;;;0.80;0.80;;;;;;;;;;5086852;28;20216;-62
2023/08/02 11:18:38;;;;;;;1.30;1.30;;;;;;;;;;5090362;28;20202;-61
2023/08/02 11:21:09;;;;;;;1.38;1.38;;;;;;;;;;5091950;28;20232;-61
2023/08/02 11:23:36;;;;;;;1.00;1.00;;;;;;;;;;5080911;28;20219;-61
2023/08/02 11:26:09;;;;;;;1.33;1.33;;;;;;;;;;5074900;28;20206;-63
2023/08/02 11:28:40;;;;;;;2.47;1.10;;;;;;;;;;5081348;28;20205;-61
2023/08/02 11:31:09;;;;;;;0.93;0.93;;;;;;;;;;5081480;28;20283;-62
2023/08/02 11:33:37;;;;;;;1.13;1.00;;;;;;;;;;5087371;28;20218;-61
2023/08/02 11:36:07;;;;;;;1.20;1.17;;;;;;;;;;5092070;28;20383;-61
2023/08/02 11:38:34;;;;;;;0.88;0.88;;;;;;;;;;5089296;28;20213;-61
2023/08/02 11:41:01;;;;;;;0.90;0.90;;;;;;;;;;5086366;28;20206;-61
2023/08/02 11:43:35;;;;;;;0.82;0.82;;;;;;;;;;5083115;28;20219;-60
2023/08/02 11:46:14;;;;;;;0.77;0.77;;;;;;;;;;5074264;28;20206;-60
2023/08/02 11:48:44;;;;;;;0.70;0.70;;;;;;;;;;5081422;28;20218;-60
2023/08/02 11:51:11;;;;;;;0.80;0.80;;;;;;;;;;5076502;28;20202;-61
2023/08/02 11:53:50;;;;;;;1.10;1.10;;;;;;;;;;5081743;28;20203;-60
2023/08/02 11:56:17;;;;;;;1.88;0.93;;;;;;;;;;5071115;28;20202;-60
2023/08/02 11:58:46;;;;;;;1.05;0.95;;;;;;;;;;5084146;28;20736;-61
2023/08/02 12:01:15;;;;;;;0.88;0.88;;;;;;;;;;5088520;28;20301;-61
2023/08/02 12:03:53;;;;;;;0.82;0.82;;;;;;;;;;5079543;28;20205;-60
2023/08/02 12:06:20;;;;;;;2.08;1.00;;;;;;;;;;5069965;28;20234;-60
2023/08/02 12:08:51;;;;;;;0.80;0.80;;;;;;;;;;5085655;28;20210;-61
2023/08/02 12:11:19;;;;;;;1.00;1.00;;;;;;;;;;5090253;28;20255;-61
2023/08/02 12:13:50;;;;;;;0.85;0.85;;;;;;;;;;5082649;28;20234;-61
2023/08/02 12:16:20;;;;;;;0.73;0.73;;;;;;;;;;5069509;28;20237;-64
2023/08/02 12:18:51;;;;;;;0.90;0.90;;;;;;;;;;5074401;28;20203;-62
2023/08/02 12:21:19;;;;;;;0.90;0.90;;;;;;;;;;5087325;28;20751;-61
2023/08/02 12:23:46;;;;;;;1.52;0.85;;;;;;;;;;5082199;28;20207;-62
2023/08/02 12:26:13;;;;;;;0.88;0.88;;;;;;;;;;5088914;28;20198;-61
2023/08/02 12:28:44;;;;;;;0.70;0.70;;;;;;;;;;5078742;28;20218;-61
2023/08/02 12:31:11;;;;;;;1.55;0.80;;;;;;;;;;5068159;28;20744;-64
2023/08/02 12:33:39;;;;;;;0.60;0.60;;;;;;;;;;5070650;28;20203;-64
2023/08/02 12:36:07;;;;;;;0.70;0.70;;;;;;;;;;5084712;28;20883;-65
2023/08/02 12:38:34;;;;;;;0.80;0.80;;;;;;;;;;5081744;28;20214;-65
2023/08/02 12:41:03;;;;;;;0.70;0.70;;;;;;;;;;5070159;28;20211;-64
2023/08/02 12:43:30;;;;;;;0.57;0.57;;;;;;;;;;5070708;28;20227;-65
2023/08/02 12:45:57;;;;;;;3.00;2.40;;;;;;;;;;5071281;28;20293;-64
2023/08/02 12:48:24;;;;;;;63.88;15.98;;;;;;;;;;5070533;28;20937;-64
2023/08/02 12:50:52;;;;;;;234.90;51.45;;;;;;;;;;5070716;28;20215;-65
2023/08/02 12:53:19;;;;;;;140.00;33.78;;;;;;;;;;5071437;28;20199;-61
2023/08/02 12:55:46;;;;;;;4.32;2.25;;;;;;;;;;5090511;28;20230;-60
2023/08/02 12:58:13;;;;;;;17.38;5.97;;;;;;;;;;5088338;28;20206;-60
2023/08/02 13:00:42;;;;;;;3.80;1.40;;;;;;;;;;5069679;28;20229;-60
2023/08/02 13:03:10;;;;;;;18.25;5.15;;;;;;;;;;5070329;28;20238;-61
2023/08/02 13:05:37;;;;;;;10.57;3.60;;;;;;;;;;5069585;28;20218;-60
2023/08/02 13:08:06;;;;;;;2.60;1.65;;;;;;;;;;5070365;28;20211;-60
2023/08/02 13:10:33;;;;;;;1.10;1.10;;;;;;;;;;5073189;28;20684;-60
2023/08/02 13:13:00;;;;;;;0.98;0.95;;;;;;;;;;5090059;28;20572;-60
2023/08/02 13:15:27;;;;;;;4.95;2.35;;;;;;;;;;5069621;28;20223;-60
2023/08/02 13:17:54;;;;;;;6.50;2.10;;;;;;;;;;5086207;28;20222;-60
2023/08/02 13:20:21;;;;;;;1.98;1.77;;;;;;;;;;5089673;28;20434;-60
2023/08/02 13:22:48;;;;;;;1.60;1.50;;;;;;;;;;5088855;28;20213;-60
2023/08/02 13:25:18;;;;;;;1.20;1.20;;;;;;;;;;5088785;28;20202;-60
2023/08/02 13:27:45;;;;;;;1.00;1.00;;;;;;;;;;5089109;28;20206;-61
2023/08/02 13:30:12;;;;;;;3.10;1.42;;;;;;;;;;5072574;28;20324;-60
2023/08/02 13:32:40;;;;;;;1.27;1.10;;;;;;;;;;5077089;28;20246;-61
2023/08/02 13:35:08;;;;;;;1.20;1.20;;;;;;;;;;5073364;28;20219;-60
2023/08/02 13:37:35;;;;;;;1.50;1.40;;;;;;;;;;5076349;28;20209;-60
2023/08/02 13:40:03;;;;;;;1.88;1.65;;;;;;;;;;5073871;28;20206;-59
2023/08/02 13:42:32;;;;;;;1.67;1.50;;;;;;;;;;5073222;28;20206;-59
2023/08/02 13:44:59;;;;;;;1.92;1.83;;;;;;;;;;5074828;28;20199;-59
2023/08/02 13:47:26;;;;;;;2.33;2.10;;;;;;;;;;5070417;28;20211;-59
2023/08/02 13:49:54;;;;;;;3.88;1.70;;;;;;;;;;5074446;28;20218;-59
2023/08/02 13:52:21;;;;;;;1.80;1.52;;;;;;;;;;5069249;28;20211;-59
2023/08/02 13:54:48;;;;;;;1.38;1.17;;;;;;;;;;5070135;28;20227;-59
2023/08/02 13:57:15;;;;;;;0.90;0.90;;;;;;;;;;5069014;28;20203;-59
2023/08/02 13:59:44;;;;;;;1.55;0.90;;;;;;;;;;5068725;28;20215;-59
2023/08/02 14:02:11;;;;;;;0.82;0.82;;;;;;;;;;5069062;28;20223;-59
2023/08/02 14:04:38;;;;;;;0.82;0.82;;;;;;;;;;5077025;28;20713;-59
2023/08/02 14:07:05;;;;;;;2.55;1.00;;;;;;;;;;5089469;28;20210;-59
2023/08/02 14:09:32;;;;;;;1.98;0.93;;;;;;;;;;5079240;28;20227;-61
2023/08/02 14:11:59;;;;;;;0.90;0.90;;;;;;;;;;5068942;28;20206;-60
2023/08/02 14:14:26;;;;;;;1.30;1.20;;;;;;;;;;5071211;28;20206;-61
2023/08/02 14:16:55;;;;;;;3.80;1.35;;;;;;;;;;5088833;28;20213;-61
2023/08/02 14:19:22;;;;;;;1.33;1.33;;;;;;;;;;5081603;28;20198;-60
2023/08/02 14:21:49;;;;;;;1.15;1.15;;;;;;;;;;5080918;28;20210;-61
2023/08/02 14:24:16;;;;;;;2.58;1.35;;;;;;;;;;5080363;28;20202;-60
2023/08/02 14:26:43;;;;;;;1.30;1.30;;;;;;;;;;5070823;28;20225;-60
2023/08/02 14:29:10;;;;;;;1.55;1.45;;;;;;;;;;5083497;28;20203;-60
2023/08/02 14:31:37;;;;;;;2.22;1.50;;;;;;;;;;5068039;28;20751;-60
2023/08/02 14:34:06;;;;;;;3.78;1.30;;;;;;;;;;5079087;28;20214;-61
2023/08/02 14:36:33;;;;;;;1.08;1.08;;;;;;;;;;5068235;28;20234;-60
2023/08/02 14:39:00;;;;;;;0.90;0.90;;;;;;;;;;5078397;28;20881;-60
2023/08/02 14:41:28;;;;;;;1.05;1.05;;;;;;;;;;5068134;28;20324;-61
2023/08/02 14:43:55;;;;;;;0.90;0.90;;;;;;;;;;5067986;28;20242;-60
2023/08/02 14:46:22;;;;;;;0.63;0.63;;;;;;;;;;5079750;28;20206;-60
2023/08/02 14:48:49;;;;;;;0.60;0.60;;;;;;;;;;5087365;28;20237;-60